sensor_id;sensor_type;location;lat;lon;timestamp;pressure;altitude;pressure_sealevel;temperature;humidity
29535;BME280;72082;52.650;8.116;2023-11-19T00:00:50;100425.34;;;8.81;100.00
29535;BME280;72082;52.650;8.116;2023-11-19T00:03:16;100423.63;;;8.85;100.00
29535;BME280;72082;52.650;8.116;2023-11-19T00:05:41;100421.06;;;8.88;100.00
29535;BME280;72082;52.650;8.116;2023-11-19T00:08:06;100415.94;;;8.92;100.00
29535;BME280;72082;52.650;8.116;2023-11-19T00:10:31;100415.97;;;8.94;100.00
29535;BME280;72082;52.650;8.116;2023-11-19T00:12:57;100409.97;;;8.98;100.00
29535;BME280;72082;52.650;8.116;2023-11-19T00:15:22;100418.50;;;9.01;100.00
29535;BME280;72082;52.650;8.116;2023-11-19T00:17:48;100411.66;;;9.05;100.00
29535;BME280;72082;52.650;8.116;2023-11-19T00:20:14;100401.44;;;9.11;100.00
29535;BME280;72082;52.650;8.116;2023-11-19T00:22:40;100393.72;;;9.15;100.00
29535;BME280;72082;52.650;8.116;2023-11-19T00:25:06;100388.63;;;9.20;100.00
29535;BME280;72082;52.650;8.116;2023-11-19T00:27:31;100383.50;;;9.21;100.00
29535;BME280;72082;52.650;8.116;2023-11-19T00:29:57;100387.78;;;9.22;100.00
29535;BME280;72082;52.650;8.116;2023-11-19T00:32:22;100392.00;;;9.23;100.00
29535;BME280;72082;52.650;8.116;2023-11-19T00:34:48;100384.34;;;9.28;100.00
29535;BME280;72082;52.650;8.116;2023-11-19T00:37:14;100383.47;;;9.32;100.00
29535;BME280;72082;52.650;8.116;2023-11-19T00:39:39;100379.19;;;9.36;100.00
29535;BME280;72082;52.650;8.116;2023-11-19T00:42:04;100373.19;;;9.40;100.00
29535;BME280;72082;52.650;8.116;2023-11-19T00:44:29;100362.97;;;9.43;100.00
29535;BME280;72082;52.650;8.116;2023-11-19T00:46:55;100362.97;;;9.46;100.00
29535;BME280;72082;52.650;8.116;2023-11-19T00:49:20;100362.06;;;9.50;100.00
29535;BME280;72082;52.650;8.116;2023-11-19T00:51:45;100366.31;;;9.55;100.00
29535;BME280;72082;52.650;8.116;2023-11-19T00:54:10;100356.91;;;9.57;100.00
29535;BME280;72082;52.650;8.116;2023-11-19T00:56:35;100358.59;;;9.60;100.00
29535;BME280;72082;52.650;8.116;2023-11-19T00:59:01;100356.06;;;9.61;100.00
29535;BME280;72082;52.650;8.116;2023-11-19T01:01:26;100357.72;;;9.65;100.00
29535;BME280;72082;52.650;8.116;2023-11-19T01:03:51;100356.00;;;9.69;100.00
29535;BME280;72082;52.650;8.116;2023-11-19T01:06:27;100348.31;;;9.72;100.00
29535;BME280;72082;52.650;8.116;2023-11-19T01:08:52;100353.41;;;9.76;100.00
29535;BME280;72082;52.650;8.116;2023-11-19T01:11:21;100341.44;;;9.81;100.00
29535;BME280;72082;52.650;8.116;2023-11-19T01:13:46;100322.63;;;9.85;100.00
29535;BME280;72082;52.650;8.116;2023-11-19T01:16:11;100308.97;;;9.89;100.00
29535;BME280;72082;52.650;8.116;2023-11-19T01:18:37;100320.84;;;9.93;100.00
29535;BME280;72082;52.650;8.116;2023-11-19T01:21:02;100314.84;;;9.99;100.00
29535;BME280;72082;52.650;8.116;2023-11-19T01:23:28;100309.72;;;10.02;100.00
29535;BME280;72082;52.650;8.116;2023-11-19T01:25:53;100317.34;;;10.07;100.00
29535;BME280;72082;52.650;8.116;2023-11-19T01:28:18;100315.63;;;10.10;100.00
29535;BME280;72082;52.650;8.116;2023-11-19T01:30:43;100314.78;;;10.13;100.00
29535;BME280;72082;52.650;8.116;2023-11-19T01:33:09;100319.03;;;10.15;100.00
29535;BME280;72082;52.650;8.116;2023-11-19T01:35:34;100316.44;;;10.17;100.00
29535;BME280;72082;52.650;8.116;2023-11-19T01:37:59;100309.63;;;10.19;100.00
29535;BME280;72082;52.650;8.116;2023-11-19T01:40:24;100301.91;;;10.20;100.00
29535;BME280;72082;52.650;8.116;2023-11-19T01:42:49;100310.41;;;10.22;100.00
29535;BME280;72082;52.650;8.116;2023-11-19T01:45:22;100295.06;;;10.24;100.00
29535;BME280;72082;52.650;8.116;2023-11-19T01:47:51;100297.59;;;10.27;100.00
29535;BME280;72082;52.650;8.116;2023-11-19T01:50:17;100306.09;;;10.29;100.00
29535;BME280;72082;52.650;8.116;2023-11-19T01:52:42;100295.81;;;10.33;100.00
29535;BME280;72082;52.650;8.116;2023-11-19T01:55:10;100298.38;;;10.35;100.00
29535;BME280;72082;52.650;8.116;2023-11-19T01:57:36;100281.28;;;10.35;100.00
29535;BME280;72082;52.650;8.116;2023-11-19T02:00:01;100290.63;;;10.39;100.00
29535;BME280;72082;52.650;8.116;2023-11-19T02:02:27;100281.19;;;10.43;100.00
29535;BME280;72082;52.650;8.116;2023-11-19T02:04:52;100271.78;;;10.46;100.00
29535;BME280;72082;52.650;8.116;2023-11-19T02:07:18;100282.00;;;10.49;100.00
29535;BME280;72082;52.650;8.116;2023-11-19T02:09:44;100271.72;;;10.52;100.00
29535;BME280;72082;52.650;8.116;2023-11-19T02:12:10;100264.88;;;10.54;100.00
29535;BME280;72082;52.650;8.116;2023-11-19T02:14:35;100260.56;;;10.57;100.00
29535;BME280;72082;52.650;8.116;2023-11-19T02:17:00;100269.94;;;10.61;100.00
29535;BME280;72082;52.650;8.116;2023-11-19T02:19:26;100259.66;;;10.62;100.00
29535;BME280;72082;52.650;8.116;2023-11-19T02:21:51;100266.47;;;10.65;100.00
29535;BME280;72082;52.650;8.116;2023-11-19T02:24:17;100264.72;;;10.68;100.00
29535;BME280;72082;52.650;8.116;2023-11-19T02:27:02;100283.44;;;10.73;100.00
29535;BME280;72082;52.650;8.116;2023-11-19T02:29:31;100280.84;;;10.75;100.00
29535;BME280;72082;52.650;8.116;2023-11-19T02:31:56;100285.09;;;10.77;100.00
29535;BME280;72082;52.650;8.116;2023-11-19T02:34:21;100275.69;;;10.79;100.00
29535;BME280;72082;52.650;8.116;2023-11-19T02:36:46;100273.94;;;10.84;100.00
29535;BME280;72082;52.650;8.116;2023-11-19T02:39:12;100262.75;;;10.88;100.00
29535;BME280;72082;52.650;8.116;2023-11-19T02:41:37;100255.91;;;10.90;100.00
29535;BME280;72082;52.650;8.116;2023-11-19T02:44:02;100268.69;;;10.93;100.00
29535;BME280;72082;52.650;8.116;2023-11-19T02:46:27;100263.56;;;10.95;100.00
29535;BME280;72082;52.650;8.116;2023-11-19T02:48:53;100266.91;;;10.98;100.00
29535;BME280;72082;52.650;8.116;2023-11-19T02:51:18;100260.03;;;11.00;100.00
29535;BME280;72082;52.650;8.116;2023-11-19T02:53:43;100252.34;;;11.00;100.00
29535;BME280;72082;52.650;8.116;2023-11-19T02:56:08;100236.06;;;11.03;100.00
29535;BME280;72082;52.650;8.116;2023-11-19T02:58:34;100237.75;;;11.05;100.00
29535;BME280;72082;52.650;8.116;2023-11-19T03:00:59;100226.69;;;11.05;100.00
29535;BME280;72082;52.650;8.116;2023-11-19T03:03:30;100234.31;;;11.06;100.00
29535;BME280;72082;52.650;8.116;2023-11-19T03:05:55;100227.50;;;11.05;100.00
29535;BME280;72082;52.650;8.116;2023-11-19T03:08:21;100232.63;;;11.07;100.00
29535;BME280;72082;52.650;8.116;2023-11-19T03:10:46;100221.47;;;11.08;100.00
29535;BME280;72082;52.650;8.116;2023-11-19T03:13:15;100223.19;;;11.09;100.00
29535;BME280;72082;52.650;8.116;2023-11-19T03:15:40;100228.28;;;11.12;100.00
29535;BME280;72082;52.650;8.116;2023-11-19T03:18:06;100230.72;;;11.20;100.00
29535;BME280;72082;52.650;8.116;2023-11-19T03:20:31;100237.50;;;11.25;100.00
29535;BME280;72082;52.650;8.116;2023-11-19T03:22:57;100236.59;;;11.28;100.00
29535;BME280;72082;52.650;8.116;2023-11-19T03:25:22;100248.53;;;11.30;100.00
29535;BME280;72082;52.650;8.116;2023-11-19T03:27:47;100229.66;;;11.36;100.00
29535;BME280;72082;52.650;8.116;2023-11-19T03:30:12;100219.34;;;11.37;100.00
29535;BME280;72082;52.650;8.116;2023-11-19T03:32:38;100218.47;;;11.40;100.00
29535;BME280;72082;52.650;8.116;2023-11-19T03:35:05;100209.00;;;11.43;100.00
29535;BME280;72082;52.650;8.116;2023-11-19T03:37:30;100216.66;;;11.45;100.00
29535;BME280;72082;52.650;8.116;2023-11-19T03:39:57;100214.06;;;11.48;100.00
29535;BME280;72082;52.650;8.116;2023-11-19T03:42:22;100219.97;;;11.53;100.00
29535;BME280;72082;52.650;8.116;2023-11-19T03:44:47;100226.78;;;11.55;100.00
29535;BME280;72082;52.650;8.116;2023-11-19T03:47:12;100231.03;;;11.56;100.00
29535;BME280;72082;52.650;8.116;2023-11-19T03:49:37;100226.75;;;11.57;100.00
29535;BME280;72082;52.650;8.116;2023-11-19T03:52:03;100230.16;;;11.59;100.00
29535;BME280;72082;52.650;8.116;2023-11-19T03:54:28;100228.44;;;11.58;100.00
29535;BME280;72082;52.650;8.116;2023-11-19T03:56:53;100231.00;;;11.59;100.00
29535;BME280;72082;52.650;8.116;2023-11-19T03:59:19;100227.53;;;11.60;100.00
29535;BME280;72082;52.650;8.116;2023-11-19T04:01:44;100242.94;;;11.62;100.00
29535;BME280;72082;52.650;8.116;2023-11-19T04:04:09;100233.53;;;11.61;100.00
29535;BME280;72082;52.650;8.116;2023-11-19T04:06:34;100243.78;;;11.61;100.00
29535;BME280;72082;52.650;8.116;2023-11-19T04:08:59;100224.97;;;11.62;100.00
29535;BME280;72082;52.650;8.116;2023-11-19T04:11:25;100224.94;;;11.63;100.00
29535;BME280;72082;52.650;8.116;2023-11-19T04:13:50;100230.06;;;11.65;100.00
29535;BME280;72082;52.650;8.116;2023-11-19T04:16:15;100237.72;;;11.66;100.00
29535;BME280;72082;52.650;8.116;2023-11-19T04:18:40;100232.56;;;11.68;100.00
29535;BME280;72082;52.650;8.116;2023-11-19T04:21:07;100224.03;;;11.69;100.00
29535;BME280;72082;52.650;8.116;2023-11-19T04:23:32;100226.56;;;11.72;100.00
29535;BME280;72082;52.650;8.116;2023-11-19T04:25:57;100223.09;;;11.74;100.00
29535;BME280;72082;52.650;8.116;2023-11-19T04:28:22;100223.91;;;11.76;100.00
29535;BME280;72082;52.650;8.116;2023-11-19T04:30:47;100209.31;;;11.78;100.00
29535;BME280;72082;52.650;8.116;2023-11-19T04:33:13;100208.41;;;11.81;100.00
29535;BME280;72082;52.650;8.116;2023-11-19T04:35:38;100209.25;;;11.83;100.00
29535;BME280;72082;52.650;8.116;2023-11-19T04:38:03;100216.97;;;11.82;100.00
29535;BME280;72082;52.650;8.116;2023-11-19T04:40:28;100224.72;;;11.80;100.00
29535;BME280;72082;52.650;8.116;2023-11-19T04:42:54;100222.16;;;11.80;100.00
29535;BME280;72082;52.650;8.116;2023-11-19T04:45:19;100203.28;;;11.81;100.00
29535;BME280;72082;52.650;8.116;2023-11-19T04:47:44;100213.53;;;11.83;100.00
29535;BME280;72082;52.650;8.116;2023-11-19T04:50:09;100221.22;;;11.84;100.00
29535;BME280;72082;52.650;8.116;2023-11-19T04:52:37;100205.81;;;11.84;100.00
29535;BME280;72082;52.650;8.116;2023-11-19T04:55:02;100218.63;;;11.84;100.00
29535;BME280;72082;52.650;8.116;2023-11-19T04:57:28;100217.88;;;11.79;100.00
29535;BME280;72082;52.650;8.116;2023-11-19T04:59:53;100221.41;;;11.72;100.00
29535;BME280;72082;52.650;8.116;2023-11-19T05:02:18;100210.44;;;11.62;100.00
29535;BME280;72082;52.650;8.116;2023-11-19T05:04:43;100219.94;;;11.56;100.00
29535;BME280;72082;52.650;8.116;2023-11-19T05:07:08;100217.41;;;11.53;100.00
29535;BME280;72082;52.650;8.116;2023-11-19T05:09:34;100214.88;;;11.51;100.00
29535;BME280;72082;52.650;8.116;2023-11-19T05:11:59;100224.31;;;11.49;100.00
29535;BME280;72082;52.650;8.116;2023-11-19T05:14:24;100227.81;;;11.44;100.00
29535;BME280;72082;52.650;8.116;2023-11-19T05:16:49;100227.00;;;11.42;100.00
29535;BME280;72082;52.650;8.116;2023-11-19T05:19:15;100232.91;;;11.45;100.00
29535;BME280;72082;52.650;8.116;2023-11-19T05:21:42;100213.25;;;11.46;100.00
29535;BME280;72082;52.650;8.116;2023-11-19T05:24:07;100221.75;;;11.48;100.00
29535;BME280;72082;52.650;8.116;2023-11-19T05:26:32;100224.31;;;11.48;100.00
29535;BME280;72082;52.650;8.116;2023-11-19T05:28:58;100231.16;;;11.49;100.00
29535;BME280;72082;52.650;8.116;2023-11-19T05:31:23;100228.56;;;11.52;100.00
29535;BME280;72082;52.650;8.116;2023-11-19T05:33:48;100233.66;;;11.53;100.00
29535;BME280;72082;52.650;8.116;2023-11-19T05:36:14;100244.72;;;11.57;100.00
29535;BME280;72082;52.650;8.116;2023-11-19T05:38:39;100228.44;;;11.58;100.00
29535;BME280;72082;52.650;8.116;2023-11-19T05:41:05;100222.50;;;11.57;100.00
29535;BME280;72082;52.650;8.116;2023-11-19T05:43:31;100230.19;;;11.56;100.00
29535;BME280;72082;52.650;8.116;2023-11-19T05:45:57;100231.88;;;11.58;100.00
29535;BME280;72082;52.650;8.116;2023-11-19T05:48:22;100234.41;;;11.60;100.00
29535;BME280;72082;52.650;8.116;2023-11-19T05:50:47;100231.84;;;11.60;100.00
29535;BME280;72082;52.650;8.116;2023-11-19T05:53:12;100232.69;;;11.60;100.00
29535;BME280;72082;52.650;8.116;2023-11-19T05:55:38;100248.94;;;11.61;100.00
29535;BME280;72082;52.650;8.116;2023-11-19T05:58:03;100242.13;;;11.60;100.00
29535;BME280;72082;52.650;8.116;2023-11-19T06:00:28;100245.50;;;11.62;100.00
29535;BME280;72082;52.650;8.116;2023-11-19T06:02:53;100246.31;;;11.64;100.00
29535;BME280;72082;52.650;8.116;2023-11-19T06:05:18;100243.78;;;11.62;100.00
29535;BME280;72082;52.650;8.116;2023-11-19T06:07:44;100240.38;;;11.60;100.00
29535;BME280;72082;52.650;8.116;2023-11-19T06:10:09;100251.50;;;11.62;100.00
29535;BME280;72082;52.650;8.116;2023-11-19T06:12:35;100262.66;;;11.60;100.00
29535;BME280;72082;52.650;8.116;2023-11-19T06:15:01;100259.19;;;11.61;100.00
29535;BME280;72082;52.650;8.116;2023-11-19T06:17:26;100254.94;;;11.58;100.00
29535;BME280;72082;52.650;8.116;2023-11-19T06:19:52;100257.53;;;11.60;100.00
29535;BME280;72082;52.650;8.116;2023-11-19T06:22:17;100271.22;;;11.59;100.00
29535;BME280;72082;52.650;8.116;2023-11-19T06:24:42;100281.44;;;11.62;100.00
29535;BME280;72082;52.650;8.116;2023-11-19T06:27:07;100282.25;;;11.64;100.00
29535;BME280;72082;52.650;8.116;2023-11-19T06:29:32;100280.50;;;11.66;100.00
29535;BME280;72082;52.650;8.116;2023-11-19T06:31:58;100287.34;;;11.67;100.00
29535;BME280;72082;52.650;8.116;2023-11-19T06:34:23;100276.25;;;11.65;100.00
29535;BME280;72082;52.650;8.116;2023-11-19T06:36:48;100284.78;;;11.65;100.00
29535;BME280;72082;52.650;8.116;2023-11-19T06:39:13;100289.94;;;11.64;100.00
29535;BME280;72082;52.650;8.116;2023-11-19T06:41:44;100286.53;;;11.63;100.00
29535;BME280;72082;52.650;8.116;2023-11-19T06:44:13;100287.41;;;11.62;100.00
29535;BME280;72082;52.650;8.116;2023-11-19T06:46:38;100299.34;;;11.63;100.00
29535;BME280;72082;52.650;8.116;2023-11-19T06:49:03;100301.03;;;11.66;100.00
29535;BME280;72082;52.650;8.116;2023-11-19T06:51:29;100299.34;;;11.65;100.00
29535;BME280;72082;52.650;8.116;2023-11-19T06:53:54;100304.50;;;11.63;100.00
29535;BME280;72082;52.650;8.116;2023-11-19T06:56:23;100305.34;;;11.64;100.00
29535;BME280;72082;52.650;8.116;2023-11-19T06:58:52;100313.06;;;11.62;100.00
29535;BME280;72082;52.650;8.116;2023-11-19T07:01:18;100313.03;;;11.64;100.00
29535;BME280;72082;52.650;8.116;2023-11-19T07:03:47;100311.28;;;11.66;100.00
29535;BME280;72082;52.650;8.116;2023-11-19T07:06:13;100324.97;;;11.66;100.00
29535;BME280;72082;52.650;8.116;2023-11-19T07:08:38;100314.72;;;11.66;100.00
29535;BME280;72082;52.650;8.116;2023-11-19T07:11:04;100307.00;;;11.66;100.00
29535;BME280;72082;52.650;8.116;2023-11-19T07:13:29;100310.44;;;11.65;100.00
29535;BME280;72082;52.650;8.116;2023-11-19T07:15:55;100317.31;;;11.65;100.00
29535;BME280;72082;52.650;8.116;2023-11-19T07:18:21;100319.03;;;11.64;100.00
29535;BME280;72082;52.650;8.116;2023-11-19T07:20:47;100331.00;;;11.64;100.00
29535;BME280;72082;52.650;8.116;2023-11-19T07:23:14;100319.88;;;11.63;100.00
29535;BME280;72082;52.650;8.116;2023-11-19T07:25:39;100324.16;;;11.63;100.00
29535;BME280;72082;52.650;8.116;2023-11-19T07:28:04;100321.66;;;11.60;100.00
29535;BME280;72082;52.650;8.116;2023-11-19T07:30:29;100304.53;;;11.60;100.00
29535;BME280;72082;52.650;8.116;2023-11-19T07:32:55;100314.78;;;11.60;100.00
29535;BME280;72082;52.650;8.116;2023-11-19T07:35:20;100322.53;;;11.59;100.00
29535;BME280;72082;52.650;8.116;2023-11-19T07:37:45;100313.97;;;11.58;100.00
29535;BME280;72082;52.650;8.116;2023-11-19T07:40:10;100325.94;;;11.58;100.00
29535;BME280;72082;52.650;8.116;2023-11-19T07:42:36;100328.50;;;11.59;100.00
29535;BME280;72082;52.650;8.116;2023-11-19T07:45:01;100328.47;;;11.61;100.00
29535;BME280;72082;52.650;8.116;2023-11-19T07:47:26;100325.91;;;11.62;100.00
29535;BME280;72082;52.650;8.116;2023-11-19T07:49:51;100337.00;;;11.63;100.00
29535;BME280;72082;52.650;8.116;2023-11-19T07:52:17;100333.59;;;11.62;100.00
29535;BME280;72082;52.650;8.116;2023-11-19T07:54:42;100328.47;;;11.61;100.00
29535;BME280;72082;52.650;8.116;2023-11-19T07:57:07;100351.63;;;11.58;100.00
29535;BME280;72082;52.650;8.116;2023-11-19T07:59:32;100338.00;;;11.53;100.00
29535;BME280;72082;52.650;8.116;2023-11-19T08:01:57;100329.50;;;11.49;100.00
29535;BME280;72082;52.650;8.116;2023-11-19T08:04:23;100332.97;;;11.47;100.00
29535;BME280;72082;52.650;8.116;2023-11-19T08:06:48;100339.81;;;11.46;100.00
29535;BME280;72082;52.650;8.116;2023-11-19T08:09:13;100338.13;;;11.44;100.00
29535;BME280;72082;52.650;8.116;2023-11-19T08:11:40;100346.72;;;11.40;100.00
29535;BME280;72082;52.650;8.116;2023-11-19T08:14:05;100345.94;;;11.36;100.00
29535;BME280;72082;52.650;8.116;2023-11-19T08:16:31;100357.03;;;11.37;100.00
29535;BME280;72082;52.650;8.116;2023-11-19T08:18:56;100358.72;;;11.38;100.00
29535;BME280;72082;52.650;8.116;2023-11-19T08:21:21;100360.41;;;11.42;100.00
29535;BME280;72082;52.650;8.116;2023-11-19T08:23:46;100346.66;;;11.46;100.00
29535;BME280;72082;52.650;8.116;2023-11-19T08:26:11;100352.59;;;11.49;100.00
29535;BME280;72082;52.650;8.116;2023-11-19T08:28:37;100367.06;;;11.55;100.00
29535;BME280;72082;52.650;8.116;2023-11-19T08:31:02;100367.06;;;11.55;100.00
29535;BME280;72082;52.650;8.116;2023-11-19T08:33:27;100359.38;;;11.55;100.00
29535;BME280;72082;52.650;8.116;2023-11-19T08:35:53;100359.38;;;11.55;100.00
29535;BME280;72082;52.650;8.116;2023-11-19T08:38:18;100360.09;;;11.63;100.00
29535;BME280;72082;52.650;8.116;2023-11-19T08:40:43;100372.03;;;11.70;100.00
29535;BME280;72082;52.650;8.116;2023-11-19T08:43:08;100367.06;;;11.55;100.00
29535;BME280;72082;52.650;8.116;2023-11-19T08:45:34;100367.28;;;11.37;100.00
29535;BME280;72082;52.650;8.116;2023-11-19T08:47:59;100375.09;;;11.28;100.00
29535;BME280;72082;52.650;8.116;2023-11-19T08:50:24;100375.13;;;11.26;100.00
29535;BME280;72082;52.650;8.116;2023-11-19T08:52:49;100376.84;;;11.24;100.00
29535;BME280;72082;52.650;8.116;2023-11-19T08:55:14;100382.81;;;11.28;100.00
29535;BME280;72082;52.650;8.116;2023-11-19T08:57:40;100387.84;;;11.35;100.00
29535;BME280;72082;52.650;8.116;2023-11-19T09:00:05;100369.78;;;11.44;100.00
29535;BME280;72082;52.650;8.116;2023-11-19T09:02:31;100380.75;;;11.52;100.00
29535;BME280;72082;52.650;8.116;2023-11-19T09:04:56;100368.72;;;11.59;100.00
29535;BME280;72082;52.650;8.116;2023-11-19T09:07:21;100364.34;;;11.67;100.00
29535;BME280;72082;52.650;8.116;2023-11-19T09:09:46;100379.63;;;11.76;100.00
29535;BME280;72082;52.650;8.116;2023-11-19T09:12:11;100392.38;;;11.82;100.00
29535;BME280;72082;52.650;8.116;2023-11-19T09:14:37;100378.78;;;11.77;100.00
29535;BME280;72082;52.650;8.116;2023-11-19T09:17:02;100384.88;;;11.67;100.00
29535;BME280;72082;52.650;8.116;2023-11-19T09:19:27;100372.94;;;11.63;100.00
29535;BME280;72082;52.650;8.116;2023-11-19T09:21:53;100370.44;;;11.60;100.00
29535;BME280;72082;52.650;8.116;2023-11-19T09:24:18;100394.34;;;11.62;100.00
29535;BME280;72082;52.650;8.116;2023-11-19T09:26:43;100384.00;;;11.69;100.00
29535;BME280;72082;52.650;8.116;2023-11-19T09:29:09;100382.19;;;11.77;100.00
29535;BME280;72082;52.650;8.116;2023-11-19T09:31:34;100383.78;;;11.85;100.00
29535;BME280;72082;52.650;8.116;2023-11-19T09:33:59;100370.03;;;11.90;100.00
29535;BME280;72082;52.650;8.116;2023-11-19T09:36:24;100380.25;;;11.93;100.00
29535;BME280;72082;52.650;8.116;2023-11-19T09:38:50;100375.91;;;11.97;100.00
29535;BME280;72082;52.650;8.116;2023-11-19T09:41:15;100382.72;;;12.01;100.00
29535;BME280;72082;52.650;8.116;2023-11-19T09:43:41;100382.63;;;12.07;100.00
29535;BME280;72082;52.650;8.116;2023-11-19T09:46:07;100385.88;;;12.16;100.00
29535;BME280;72082;52.650;8.116;2023-11-19T09:48:34;100386.66;;;12.21;100.00
29535;BME280;72082;52.650;8.116;2023-11-19T09:51:01;100381.53;;;12.21;100.00
29535;BME280;72082;52.650;8.116;2023-11-19T09:53:26;100384.97;;;12.20;100.00
29535;BME280;72082;52.650;8.116;2023-11-19T09:55:52;100385.03;;;12.17;100.00
29535;BME280;72082;52.650;8.116;2023-11-19T09:58:18;100387.59;;;12.16;100.00
29535;BME280;72082;52.650;8.116;2023-11-19T10:00:43;100394.41;;;12.18;100.00
29535;BME280;72082;52.650;8.116;2023-11-19T10:03:10;100393.47;;;12.24;100.00
29535;BME280;72082;52.650;8.116;2023-11-19T10:05:36;100386.53;;;12.30;100.00
29535;BME280;72082;52.650;8.116;2023-11-19T10:08:02;100389.06;;;12.32;100.00
29535;BME280;72082;52.650;8.116;2023-11-19T10:10:27;100377.97;;;12.30;100.00
29535;BME280;72082;52.650;8.116;2023-11-19T10:12:52;100373.75;;;12.27;100.00
29535;BME280;72082;52.650;8.116;2023-11-19T10:15:21;100383.13;;;12.28;100.00
29535;BME280;72082;52.650;8.116;2023-11-19T10:17:47;100381.31;;;12.35;100.00
29535;BME280;72082;52.650;8.116;2023-11-19T10:20:12;100379.53;;;12.38;100.00
29535;BME280;72082;52.650;8.116;2023-11-19T10:22:37;100372.66;;;12.41;100.00
29535;BME280;72082;52.650;8.116;2023-11-19T10:25:03;100376.94;;;12.40;100.00
29535;BME280;72082;52.650;8.116;2023-11-19T10:27:28;100378.63;;;12.41;100.00
29535;BME280;72082;52.650;8.116;2023-11-19T10:29:53;100371.75;;;12.43;100.00
29535;BME280;72082;52.650;8.116;2023-11-19T10:32:19;100373.44;;;12.44;100.00
29535;BME280;72082;52.650;8.116;2023-11-19T10:34:44;100373.41;;;12.47;100.00
29535;BME280;72082;52.650;8.116;2023-11-19T10:37:27;100385.34;;;12.50;100.00
29535;BME280;72082;52.650;8.116;2023-11-19T10:39:53;100367.34;;;12.50;100.00
29535;BME280;72082;52.650;8.116;2023-11-19T10:42:18;100377.63;;;12.50;100.00
29535;BME280;72082;52.650;8.116;2023-11-19T10:44:43;100381.03;;;12.52;100.00
29535;BME280;72082;52.650;8.116;2023-11-19T10:47:10;100357.03;;;12.53;100.00
29535;BME280;72082;52.650;8.116;2023-11-19T10:49:36;100368.16;;;12.53;100.00
29535;BME280;72082;52.650;8.116;2023-11-19T10:52:02;100374.97;;;12.56;100.00
29535;BME280;72082;52.650;8.116;2023-11-19T10:54:28;100370.66;;;12.58;100.00
29535;BME280;72082;52.650;8.116;2023-11-19T10:56:59;100372.31;;;12.62;100.00
29535;BME280;72082;52.650;8.116;2023-11-19T10:59:29;100373.13;;;12.64;100.00
29535;BME280;72082;52.650;8.116;2023-11-19T11:01:56;100378.22;;;12.67;100.00
29535;BME280;72082;52.650;8.116;2023-11-19T11:04:24;100368.69;;;12.70;100.00
29535;BME280;72082;52.650;8.116;2023-11-19T11:06:51;100359.22;;;12.74;100.00
29535;BME280;72082;52.650;8.116;2023-11-19T11:09:16;100369.47;;;12.75;100.00
29535;BME280;72082;52.650;8.116;2023-11-19T11:11:46;100369.47;;;12.75;100.00
29535;BME280;72082;52.650;8.116;2023-11-19T11:14:13;100360.91;;;12.75;100.00
29535;BME280;72082;52.650;8.116;2023-11-19T11:16:42;100368.56;;;12.78;100.00
29535;BME280;72082;52.650;8.116;2023-11-19T11:19:08;100358.13;;;12.87;100.00
29535;BME280;72082;52.650;8.116;2023-11-19T11:21:34;100363.94;;;12.96;100.00
29535;BME280;72082;52.650;8.116;2023-11-19T11:27:22;100359.78;;;12.88;100.00
29535;BME280;72082;52.650;8.116;2023-11-19T11:36:21;100372.00;;;13.24;100.00
29535;BME280;72082;52.650;8.116;2023-11-19T11:38:48;100360.78;;;13.67;100.00
29535;BME280;72082;52.650;8.116;2023-11-19T11:41:24;100355.16;;;14.60;100.00
29535;BME280;72082;52.650;8.116;2023-11-19T11:43:53;100341.00;;;15.07;100.00
29535;BME280;72082;52.650;8.116;2023-11-19T11:49:01;100345.97;;;14.14;100.00
29535;BME280;72082;52.650;8.116;2023-11-19T11:57:10;100371.84;;;12.86;100.00
29535;BME280;72082;52.650;8.116;2023-11-19T12:02:08;100384.97;;;12.20;100.00
29535;BME280;72082;52.650;8.116;2023-11-19T12:04:35;100400.78;;;11.93;100.00
29535;BME280;72082;52.650;8.116;2023-11-19T12:09:29;100402.03;;;11.60;100.00
29535;BME280;72082;52.650;8.116;2023-11-19T12:12:28;100399.59;;;11.50;100.00
29535;BME280;72082;52.650;8.116;2023-11-19T12:17:46;100385.22;;;11.37;100.00
29535;BME280;72082;52.650;8.116;2023-11-19T12:20:12;100392.09;;;11.36;100.00
29535;BME280;72082;52.650;8.116;2023-11-19T12:22:38;100383.53;;;11.39;100.00
29535;BME280;72082;52.650;8.116;2023-11-19T12:25:05;100379.06;;;11.53;100.00
29535;BME280;72082;52.650;8.116;2023-11-19T12:27:32;100377.06;;;11.76;100.00
29535;BME280;72082;52.650;8.116;2023-11-19T12:29:57;100357.97;;;12.47;100.00
29535;BME280;72082;52.650;8.116;2023-11-19T12:32:22;100348.00;;;13.22;100.00
29535;BME280;72082;52.650;8.116;2023-11-19T12:34:47;100330.09;;;13.96;100.00
29535;BME280;72082;52.650;8.116;2023-11-19T12:37:13;100314.56;;;14.34;100.00
29535;BME280;72082;52.650;8.116;2023-11-19T12:39:39;100317.38;;;14.23;100.00
29535;BME280;72082;52.650;8.116;2023-11-19T12:42:04;100312.84;;;13.99;100.00
29535;BME280;72082;52.650;8.116;2023-11-19T12:44:29;100330.75;;;13.67;100.00
29535;BME280;72082;52.650;8.116;2023-11-19T12:47:04;100332.47;;;13.28;100.00
29535;BME280;72082;52.650;8.116;2023-11-19T12:49:30;100333.06;;;12.98;100.00
29535;BME280;72082;52.650;8.116;2023-11-19T12:51:55;100341.22;;;12.72;100.00
29535;BME280;72082;52.650;8.116;2023-11-19T12:54:32;100345.31;;;12.36;100.00
29535;BME280;72082;52.650;8.116;2023-11-19T12:56:57;100338.06;;;12.08;100.00
29535;BME280;72082;52.650;8.116;2023-11-19T12:59:22;100376.00;;;11.91;100.00